Sao Pedro do Piaui, Brazil
Current Conditions -  °F | °C
As of 5:00 PM on Friday 28 Nov 2014 (Local Time) from SBTE Reporting Station
Few Clouds Few Clouds  
Wind Chill: 37°   Ceiling: Unl
Heat Index: 38°   Visibility: 6mi
Dew Point: 17°   Wind: 9mph
Humidity: 30%   Direction: 200°SSW
Pressure: 29.74"   Gusts: NA
Location:  5.93°S, 42.72°W
Report Text: SBTE 282000Z 20008KT 9999 FEW040 37/17 Q1007
Loading
Personal Weather Stations






























Interactive Weather Map New forecast layout! Learn more

10-Day Weather Forecast

Advertisements
Track Severe Weather on mobile